Time;durP1;ratioP1;P1;durP2;ratioP2;P2;SDS_P1;SDS_P2;PMS_P1;PMS_P2;Temp;Humidity;BMP_temperature;BMP_pressure;BME280_temperature;BME280_humidity;BME280_pressure;Samples;Min_cycle;Max_cycle;Signal;HPM_P1;HPM_P2
2022/08/11 00:01:36;;;;;;;9.70;4.82;;;;;;;;;;5075695;28;20025;-69
2022/08/11 00:04:04;;;;;;;9.23;5.10;;;;;;;;;;5075524;28;20020;-69
2022/08/11 00:06:35;;;;;;;6.57;5.55;;;;;;;;;;5075689;28;20021;-70
2022/08/11 00:09:02;;;;;;;6.68;4.72;;;;;;;;;;5075918;28;20028;-69
2022/08/11 00:11:49;;;;;;;4.78;4.13;;;;;;;;;;5075475;28;20429;-70
2022/08/11 00:14:15;;;;;;;6.85;4.82;;;;;;;;;;5073702;28;20087;-69
2022/08/11 00:16:41;;;;;;;8.35;4.20;;;;;;;;;;5075407;28;20495;-69
2022/08/11 00:19:07;;;;;;;6.13;4.88;;;;;;;;;;5075368;28;20123;-69
2022/08/11 00:21:39;;;;;;;7.50;5.30;;;;;;;;;;5075482;28;20017;-69
2022/08/11 00:24:05;;;;;;;9.32;4.72;;;;;;;;;;5075095;28;20028;-69
2022/08/11 00:26:33;;;;;;;7.55;4.68;;;;;;;;;;5075513;28;20020;-69
2022/08/11 00:29:07;;;;;;;6.88;5.32;;;;;;;;;;5075369;28;20052;-69
2022/08/11 00:31:34;;;;;;;5.32;4.55;;;;;;;;;;5075268;28;20031;-69
2022/08/11 00:34:01;;;;;;;7.53;4.72;;;;;;;;;;5084123;28;20032;-70
2022/08/11 00:36:29;;;;;;;9.60;5.78;;;;;;;;;;5079705;28;20049;-70
2022/08/11 00:38:56;;;;;;;7.82;4.30;;;;;;;;;;5075540;28;20021;-70
2022/08/11 00:41:41;;;;;;;7.30;4.30;;;;;;;;;;5075108;28;20387;-70
2022/08/11 00:44:26;;;;;;;7.22;5.07;;;;;;;;;;5075430;28;20027;-70
2022/08/11 00:47:04;;;;;;;5.40;4.53;;;;;;;;;;5073396;28;20379;-69
2022/08/11 00:49:38;;;;;;;6.55;4.63;;;;;;;;;;5074927;28;20025;-70
2022/08/11 00:52:20;;;;;;;7.20;4.75;;;;;;;;;;5074888;28;20099;-69
2022/08/11 00:55:06;;;;;;;5.05;4.38;;;;;;;;;;5074736;28;20033;-70
2022/08/11 00:57:34;;;;;;;8.00;4.63;;;;;;;;;;5075336;28;20016;-69
2022/08/11 01:00:17;;;;;;;6.47;4.50;;;;;;;;;;5074808;28;20024;-69
2022/08/11 01:02:52;;;;;;;5.80;4.72;;;;;;;;;;5074747;28;20090;-69
2022/08/11 01:05:24;;;;;;;5.63;4.65;;;;;;;;;;5074892;28;20035;-69
2022/08/11 01:08:07;;;;;;;7.70;4.80;;;;;;;;;;5074766;28;20024;-69
2022/08/11 01:10:39;;;;;;;5.45;4.65;;;;;;;;;;5074412;28;20059;-69
2022/08/11 01:13:14;;;;;;;7.28;4.55;;;;;;;;;;5074352;28;20028;-69
2022/08/11 01:15:43;;;;;;;5.85;4.38;;;;;;;;;;5074423;28;20095;-69
2022/08/11 01:18:28;;;;;;;7.13;4.88;;;;;;;;;;5074495;28;20025;-70
2022/08/11 01:21:13;;;;;;;6.18;4.80;;;;;;;;;;5074042;28;20027;-69
2022/08/11 01:23:45;;;;;;;4.72;4.22;;;;;;;;;;5074472;28;20055;-68
2022/08/11 01:26:29;;;;;;;6.68;4.70;;;;;;;;;;5074307;28;20031;-69
2022/08/11 01:29:14;;;;;;;9.90;4.70;;;;;;;;;;5074128;28;20499;-69
2022/08/11 01:31:49;;;;;;;5.10;4.60;;;;;;;;;;5074115;28;20505;-69
2022/08/11 01:34:24;;;;;;;6.85;4.55;;;;;;;;;;5085044;28;20046;-69
2022/08/11 01:36:53;;;;;;;9.18;5.50;;;;;;;;;;5075320;28;20044;-69
2022/08/11 01:39:19;;;;;;;7.45;5.25;;;;;;;;;;5074043;28;20021;-69
2022/08/11 01:44:51;;;;;;;6.35;4.78;;;;;;;;;;5073919;28;20039;-69
2022/08/11 01:50:20;;;;;;;6.83;5.23;;;;;;;;;;5074068;28;20047;-68
2022/08/11 01:52:55;;;;;;;7.68;5.50;;;;;;;;;;5073622;28;20056;-68
2022/08/11 01:55:39;;;;;;;6.97;4.70;;;;;;;;;;5073537;28;20028;-68
2022/08/11 01:58:05;;;;;;;6.32;5.30;;;;;;;;;;5073536;28;20028;-68
2022/08/11 02:00:35;;;;;;;8.45;5.18;;;;;;;;;;5073524;28;20020;-68
2022/08/11 02:03:07;;;;;;;6.57;5.07;;;;;;;;;;5073424;28;20032;-68
2022/08/11 02:05:40;;;;;;;7.20;5.35;;;;;;;;;;5072167;28;20119;-68
2022/08/11 02:08:09;;;;;;;7.47;4.80;;;;;;;;;;5072141;28;20036;-68
2022/08/11 02:13:57;;;;;;;7.25;5.25;;;;;;;;;;5073348;28;20074;-68
2022/08/11 02:16:23;;;;;;;6.10;5.03;;;;;;;;;;5073305;28;20028;-68
2022/08/11 02:24:53;;;;;;;6.83;5.00;;;;;;;;;;5073239;28;20031;-68
2022/08/11 02:27:22;;;;;;;5.70;4.93;;;;;;;;;;5073205;28;20021;-68
2022/08/11 02:30:06;;;;;;;7.75;4.95;;;;;;;;;;5073059;28;20020;-68
2022/08/11 02:35:44;;;;;;;7.05;5.18;;;;;;;;;;5072994;28;20081;-68
2022/08/11 02:38:13;;;;;;;7.03;5.60;;;;;;;;;;5072895;28;20108;-68
2022/08/11 02:40:42;;;;;;;8.18;4.82;;;;;;;;;;5073402;28;20032;-68
2022/08/11 02:43:13;;;;;;;7.13;5.32;;;;;;;;;;5072779;28;20039;-68
2022/08/11 02:45:39;;;;;;;7.13;5.45;;;;;;;;;;5072968;28;20024;-68
2022/08/11 02:51:16;;;;;;;7.25;4.95;;;;;;;;;;5072794;28;20053;-68
2022/08/11 02:54:01;;;;;;;8.13;5.30;;;;;;;;;;5072177;28;20422;-69
2022/08/11 02:56:45;;;;;;;8.18;4.47;;;;;;;;;;5072799;28;20031;-68
2022/08/11 03:02:14;;;;;;;6.20;4.97;;;;;;;;;;5072658;28;20032;-68
2022/08/11 03:04:50;;;;;;;9.45;4.82;;;;;;;;;;5072664;28;20025;-68
2022/08/11 03:07:42;;;;;;;6.20;4.50;;;;;;;;;;5072619;28;20024;-68
2022/08/11 03:10:09;;;;;;;6.80;4.72;;;;;;;;;;5070629;28;20068;-68
2022/08/11 03:16:44;;;;;;;5.30;4.40;;;;;;;;;;5072675;28;20058;-68
2022/08/11 03:18:39;;;;;;;6.40;5.03;;;;;;;;;;5072322;28;20262;-68
2022/08/11 03:21:17;;;;;;;6.05;4.43;;;;;;;;;;5072310;28;20025;-68
2022/08/11 03:23:55;;;;;;;6.88;5.07;;;;;;;;;;5072534;28;20487;-68
2022/08/11 03:26:31;;;;;;;7.70;4.70;;;;;;;;;;5072601;28;20047;-67
2022/08/11 03:29:16;;;;;;;8.68;4.75;;;;;;;;;;5072710;28;20483;-67
2022/08/11 03:32:11;;;;;;;7.80;4.75;;;;;;;;;;5072443;28;20112;-68
2022/08/11 03:34:38;;;;;;;8.40;4.40;;;;;;;;;;5047868;28;20049;-67
2022/08/11 03:37:10;;;;;;;8.30;5.22;;;;;;;;;;5049983;28;20041;-67
2022/08/11 03:39:55;;;;;;;6.70;4.97;;;;;;;;;;5050333;28;20033;-67
2022/08/11 03:42:27;;;;;;;7.72;4.90;;;;;;;;;;5050260;28;20510;-66
2022/08/11 03:45:11;;;;;;;7.03;4.28;;;;;;;;;;5019400;28;20112;-67
2022/08/11 03:47:43;;;;;;;6.15;4.68;;;;;;;;;;5049972;28;20029;-68
2022/08/11 03:50:09;;;;;;;7.22;4.90;;;;;;;;;;5050001;28;20029;-67
2022/08/11 03:52:56;;;;;;;5.88;4.55;;;;;;;;;;5050056;28;20037;-68
2022/08/11 03:55:40;;;;;;;5.63;4.68;;;;;;;;;;5049931;28;20113;-66
2022/08/11 03:58:18;;;;;;;6.50;4.47;;;;;;;;;;5050019;28;20496;-66
2022/08/11 04:01:02;;;;;;;8.20;4.97;;;;;;;;;;5049803;28;20048;-67
2022/08/11 04:03:29;;;;;;;6.85;4.38;;;;;;;;;;5049910;28;20595;-67
2022/08/11 04:06:12;;;;;;;9.88;4.30;;;;;;;;;;5051246;28;20029;-67
2022/08/11 04:08:40;;;;;;;7.18;4.57;;;;;;;;;;5053682;28;20032;-67
2022/08/11 04:11:13;;;;;;;5.97;4.72;;;;;;;;;;5065612;28;20032;-67
2022/08/11 04:13:54;;;;;;;5.43;4.72;;;;;;;;;;5075726;28;20032;-68
2022/08/11 04:16:29;;;;;;;7.32;4.63;;;;;;;;;;5075890;28;20028;-68
2022/08/11 04:19:01;;;;;;;7.07;4.80;;;;;;;;;;5075407;28;20151;-66
2022/08/11 04:21:37;;;;;;;6.25;4.55;;;;;;;;;;5075334;28;20027;-67
2022/08/11 04:24:23;;;;;;;6.28;4.20;;;;;;;;;;5075370;28;20028;-66
2022/08/11 04:26:52;;;;;;;6.28;5.05;;;;;;;;;;5075479;28;20387;-67
2022/08/11 04:29:19;;;;;;;6.68;4.57;;;;;;;;;;5075316;28;20098;-66
2022/08/11 04:32:17;;;;;;;8.23;4.63;;;;;;;;;;5075458;28;20021;-66
2022/08/11 04:34:43;;;;;;;7.15;5.30;;;;;;;;;;5051713;28;20057;-66
2022/08/11 04:37:33;;;;;;;6.13;4.78;;;;;;;;;;5052908;28;20049;-66
2022/08/11 04:39:59;;;;;;;7.25;4.90;;;;;;;;;;5053137;28;20090;-68
2022/08/11 04:45:47;;;;;;;8.18;5.05;;;;;;;;;;5053125;28;20463;-68
2022/08/11 05:03:13;;;;;;;6.65;4.82;;;;;;;;;;5012972;28;20117;-69
2022/08/11 05:06:01;;;;;;;8.25;4.78;;;;;;;;;;5012564;28;20040;-69
2022/08/11 05:08:40;;;;;;;7.63;5.15;;;;;;;;;;4996062;28;20552;-69
2022/08/11 05:11:12;;;;;;;7.93;4.50;;;;;;;;;;5029076;28;20091;-69
2022/08/11 05:36:28;;;;;;;10.98;5.63;;;;;;;;;;5078806;28;20110;-68
2022/08/11 05:58:37;;;;;;;9.38;6.80;;;;;;;;;;5073526;28;20039;-68
2022/08/11 06:01:04;;;;;;;6.57;5.57;;;;;;;;;;5073473;28;20116;-69
2022/08/11 06:04:12;;;;;;;14.82;5.80;;;;;;;;;;5073833;28;20375;-67
2022/08/11 06:06:18;;;;;;;8.52;5.75;;;;;;;;;;5073750;28;20048;-67
2022/08/11 06:08:45;;;;;;;7.00;5.43;;;;;;;;;;5073456;28;20062;-67
2022/08/11 06:11:12;;;;;;;11.13;5.63;;;;;;;;;;5073428;28;20077;-68
2022/08/11 06:13:44;;;;;;;11.10;5.93;;;;;;;;;;5073450;28;20036;-67
2022/08/11 06:16:11;;;;;;;10.82;5.80;;;;;;;;;;5073240;28;20031;-68
2022/08/11 06:18:37;;;;;;;8.60;5.65;;;;;;;;;;5073267;28;20375;-67
2022/08/11 06:21:08;;;;;;;11.88;6.50;;;;;;;;;;5073026;28;20020;-68
2022/08/11 06:23:34;;;;;;;;;;;;;;;;;;5073758;28;20039;-67
2022/08/11 06:26:01;;;;;;;8.13;5.60;;;;;;;;;;5073029;28;19991;-69
2022/08/11 06:28:32;;;;;;;9.05;6.03;;;;;;;;;;5073074;28;20013;-69
2022/08/11 06:30:58;;;;;;;10.93;5.30;;;;;;;;;;5073000;28;20028;-69
2022/08/11 06:33:35;;;;;;;7.50;4.93;;;;;;;;;;5077144;28;20063;-68
2022/08/11 06:36:10;;;;;;;7.55;5.20;;;;;;;;;;5081318;28;20102;-68
2022/08/11 06:38:45;;;;;;;9.43;5.53;;;;;;;;;;5072785;28;20497;-70
2022/08/11 06:41:29;;;;;;;10.25;6.15;;;;;;;;;;5072878;28;20095;-69
2022/08/11 06:44:13;;;;;;;8.60;5.00;;;;;;;;;;5073309;28;20024;-69
2022/08/11 06:46:44;;;;;;;10.38;5.63;;;;;;;;;;5072901;28;20036;-69
2022/08/11 06:52:00;;;;;;;9.65;5.10;;;;;;;;;;5072949;28;20134;-69
2022/08/11 06:54:27;;;;;;;7.13;5.38;;;;;;;;;;5072601;28;20029;-69
2022/08/11 07:02:28;;;;;;;9.60;4.88;;;;;;;;;;5072891;28;20133;-69
2022/08/11 07:05:02;;;;;;;5.63;3.97;;;;;;;;;;5072677;28;20029;-68
2022/08/11 07:16:18;;;;;;;9.52;3.80;;;;;;;;;;5072588;28;20098;-68
2022/08/11 07:29:51;;;;;;;5.32;3.53;;;;;;;;;;5072422;28;20135;-69
2022/08/11 07:32:23;;;;;;;9.13;3.65;;;;;;;;;;5072348;28;20021;-70
2022/08/11 07:34:53;;;;;;;4.70;3.97;;;;;;;;;;5086307;28;20700;-69
2022/08/11 07:37:20;;;;;;;4.93;3.40;;;;;;;;;;5072111;28;20041;-70
2022/08/11 07:39:47;;;;;;;7.43;3.83;;;;;;;;;;5072232;28;20448;-69
2022/08/11 07:42:14;;;;;;;7.32;4.13;;;;;;;;;;5075691;28;20028;-69
2022/08/11 07:52:58;;;;;;;6.15;3.80;;;;;;;;;;5076274;28;20086;-70
2022/08/11 07:55:24;;;;;;;4.63;3.70;;;;;;;;;;5075859;28;20040;-69
2022/08/11 08:20:13;;;;;;;5.80;3.97;;;;;;;;;;5075648;28;20067;-69
2022/08/11 08:22:39;;;;;;;8.90;4.53;;;;;;;;;;5075841;28;20025;-69
2022/08/11 08:25:06;;;;;;;5.82;4.20;;;;;;;;;;5075268;28;20025;-70
2022/08/11 08:27:32;;;;;;;4.95;3.33;;;;;;;;;;5075271;28;20017;-69
2022/08/11 08:32:44;;;;;;;3.15;2.80;;;;;;;;;;5075415;28;20067;-69
2022/08/11 08:35:11;;;;;;;6.93;3.60;;;;;;;;;;5089163;28;20109;-70
2022/08/11 08:37:38;;;;;;;5.50;4.05;;;;;;;;;;5074885;28;20435;-69
2022/08/11 08:40:06;;;;;;;7.05;4.63;;;;;;;;;;5075099;28;20441;-70
2022/08/11 08:42:35;;;;;;;11.55;4.00;;;;;;;;;;5075085;28;20020;-70
2022/08/11 08:45:05;;;;;;;5.97;3.90;;;;;;;;;;5075132;28;20074;-70
2022/08/11 08:47:35;;;;;;;6.18;3.05;;;;;;;;;;5075049;28;20052;-70
2022/08/11 08:50:06;;;;;;;3.90;3.00;;;;;;;;;;5074847;28;20125;-69
2022/08/11 08:52:38;;;;;;;9.77;5.05;;;;;;;;;;5073751;28;20031;-69
2022/08/11 08:55:05;;;;;;;7.13;4.72;;;;;;;;;;5074551;28;20032;-69
2022/08/11 08:57:32;;;;;;;9.85;3.25;;;;;;;;;;5074923;28;20471;-70
2022/08/11 09:00:00;;;;;;;4.68;3.03;;;;;;;;;;5074780;28;20081;-70
2022/08/11 09:02:26;;;;;;;3.88;3.03;;;;;;;;;;5074475;28;20025;-70
2022/08/11 09:04:52;;;;;;;4.30;3.35;;;;;;;;;;5074411;28;20028;-69
2022/08/11 09:07:22;;;;;;;5.35;3.33;;;;;;;;;;5074427;28;20060;-70
2022/08/11 09:09:49;;;;;;;5.47;3.97;;;;;;;;;;5074588;28;20414;-70
2022/08/11 09:12:17;;;;;;;6.70;3.10;;;;;;;;;;5074345;28;20036;-70
2022/08/11 09:15:02;;;;;;;4.18;3.33;;;;;;;;;;5073106;28;20152;-70
2022/08/11 09:17:37;;;;;;;6.68;3.95;;;;;;;;;;5074200;28;20016;-69
2022/08/11 09:20:06;;;;;;;5.43;4.32;;;;;;;;;;5074500;28;20024;-70
2022/08/11 09:28:06;;;;;;;4.88;3.42;;;;;;;;;;5074383;28;20035;-72
2022/08/11 09:30:32;;;;;;;4.60;3.38;;;;;;;;;;5074406;28;20033;-69
2022/08/11 09:33:00;;;;;;;4.80;3.03;;;;;;;;;;5074387;28;20024;-69
2022/08/11 09:35:27;;;;;;;4.82;4.10;;;;;;;;;;5087213;28;20411;-71
2022/08/11 09:40:43;;;;;;;4.10;3.40;;;;;;;;;;5074271;28;20036;-70
2022/08/11 09:45:57;;;;;;;5.05;3.13;;;;;;;;;;5074291;28;20036;-70
2022/08/11 09:48:24;;;;;;;4.18;3.17;;;;;;;;;;5073691;28;20024;-69
2022/08/11 09:50:51;;;;;;;5.70;3.75;;;;;;;;;;5073791;28;20099;-69
2022/08/11 09:53:18;;;;;;;4.68;3.20;;;;;;;;;;5073547;28;20025;-69
2022/08/11 09:55:47;;;;;;;5.90;3.30;;;;;;;;;;5073490;28;20020;-69
2022/08/11 09:58:17;;;;;;;3.83;2.72;;;;;;;;;;5073495;28;20073;-69
2022/08/11 10:00:44;;;;;;;8.77;4.65;;;;;;;;;;5073404;28;20032;-69
2022/08/11 10:03:13;;;;;;;6.05;3.50;;;;;;;;;;5073140;28;20024;-69
2022/08/11 10:08:29;;;;;;;6.53;3.03;;;;;;;;;;5073786;28;20098;-69
2022/08/11 10:10:56;;;;;;;4.05;3.50;;;;;;;;;;5073185;28;20028;-69
2022/08/11 10:13:25;;;;;;;4.93;3.08;;;;;;;;;;5073250;28;20606;-70
2022/08/11 10:15:56;;;;;;;7.68;3.50;;;;;;;;;;5073177;28;20020;-69
2022/08/11 10:18:48;;;;;;;4.47;3.15;;;;;;;;;;5073116;28;20025;-69
2022/08/11 10:21:17;;;;;;;6.63;3.67;;;;;;;;;;5072961;28;20024;-69
2022/08/11 10:34:45;;;;;;;5.22;3.40;;;;;;;;;;5087186;28;20550;-69
2022/08/11 10:37:12;;;;;;;4.85;3.25;;;;;;;;;;5072630;28;20123;-69
2022/08/11 10:39:39;;;;;;;4.13;3.20;;;;;;;;;;5072978;28;20024;-69
2022/08/11 10:44:51;;;;;;;3.63;2.97;;;;;;;;;;5073142;28;20043;-69
2022/08/11 10:47:38;;;;;;;4.45;3.67;;;;;;;;;;5072871;28;20074;-70
2022/08/11 11:01:07;;;;;;;6.85;3.53;;;;;;;;;;5073055;28;20093;-69
2022/08/11 11:03:33;;;;;;;8.05;3.30;;;;;;;;;;5072708;28;20360;-69
2022/08/11 11:06:14;;;;;;;4.18;3.20;;;;;;;;;;5072474;28;20491;-70
2022/08/11 11:08:54;;;;;;;5.43;3.83;;;;;;;;;;5072396;28;20029;-70
2022/08/11 11:11:20;;;;;;;3.80;3.22;;;;;;;;;;5072723;28;20025;-70
2022/08/11 11:19:23;;;;;;;4.18;3.17;;;;;;;;;;5076544;28;20540;-70
2022/08/11 11:21:51;;;;;;;4.72;3.38;;;;;;;;;;5076452;28;20031;-70
2022/08/11 11:24:20;;;;;;;5.00;3.13;;;;;;;;;;5076436;28;20056;-69
2022/08/11 11:26:55;;;;;;;4.00;3.30;;;;;;;;;;5076538;28;20017;-70
2022/08/11 11:29:45;;;;;;;4.72;2.58;;;;;;;;;;5076423;28;20025;-71
2022/08/11 11:32:11;;;;;;;;;;;;;;;;;;5076911;28;20023;-71
2022/08/11 11:34:58;;;;;;;5.53;3.30;;;;;;;;;;5090217;28;20348;-70
2022/08/11 11:37:24;;;;;;;4.93;4.20;;;;;;;;;;5076149;28;20067;-71
2022/08/11 11:39:50;;;;;;;5.07;3.35;;;;;;;;;;5076280;28;20379;-70
2022/08/11 11:42:17;;;;;;;5.25;3.35;;;;;;;;;;5076189;28;20017;-69
2022/08/11 11:44:45;;;;;;;3.47;2.85;;;;;;;;;;5075050;28;20499;-70
2022/08/11 11:47:12;;;;;;;5.25;3.75;;;;;;;;;;5076098;28;20024;-70
2022/08/11 11:49:38;;;;;;;5.65;2.80;;;;;;;;;;5074906;28;20013;-70
2022/08/11 11:52:06;;;;;;;3.03;2.72;;;;;;;;;;5075890;28;20386;-70
2022/08/11 11:54:34;;;;;;;5.20;3.30;;;;;;;;;;5075834;28;20040;-70
2022/08/11 12:02:44;;;;;;;4.97;3.40;;;;;;;;;;5001623;28;20030;-69
2022/08/11 12:05:11;;;;;;;7.10;3.17;;;;;;;;;;5013839;28;20037;-70
2022/08/11 12:10:22;;;;;;;4.47;3.47;;;;;;;;;;5013737;28;20244;-70
2022/08/11 12:15:34;;;;;;;4.72;3.42;;;;;;;;;;5013671;28;20184;-68
2022/08/11 12:18:01;;;;;;;6.50;2.53;;;;;;;;;;5013752;28;20022;-68
2022/08/11 12:20:27;;;;;;;4.00;2.55;;;;;;;;;;5013539;28;20049;-70
2022/08/11 12:28:24;;;;;;;5.93;3.78;;;;;;;;;;5013760;28;20170;-72
2022/08/11 12:30:53;;;;;;;5.75;3.95;;;;;;;;;;5013350;28;20030;-70
2022/08/11 12:33:20;;;;;;;7.68;4.10;;;;;;;;;;5013263;28;20536;-69
2022/08/11 12:35:53;;;;;;;4.32;3.70;;;;;;;;;;5013037;28;20057;-69
2022/08/11 12:38:20;;;;;;;5.97;3.70;;;;;;;;;;5023826;28;20076;-69
2022/08/11 12:46:20;;;;;;;5.18;3.15;;;;;;;;;;5075050;28;20572;-69
2022/08/11 12:54:25;;;;;;;5.72;2.60;;;;;;;;;;5074922;28;20051;-69
2022/08/11 13:05:15;;;;;;;7.28;5.75;;;;;;;;;;5074872;28;20107;-69
2022/08/11 13:07:42;;;;;;;3.47;3.00;;;;;;;;;;5074358;28;20034;-69
2022/08/11 13:10:09;;;;;;;6.82;3.45;;;;;;;;;;5074385;28;20021;-70
2022/08/11 13:12:48;;;;;;;5.57;3.00;;;;;;;;;;5074373;28;20032;-70
2022/08/11 13:15:17;;;;;;;7.00;3.30;;;;;;;;;;5074387;28;20040;-70
2022/08/11 13:17:43;;;;;;;7.03;3.38;;;;;;;;;;5073923;28;20034;-69
2022/08/11 13:20:11;;;;;;;6.10;3.67;;;;;;;;;;5074410;28;20028;-68
2022/08/11 13:22:38;;;;;;;6.43;3.05;;;;;;;;;;5074428;28;20025;-69
2022/08/11 13:25:05;;;;;;;7.53;4.03;;;;;;;;;;5074225;28;20021;-69
2022/08/11 13:27:31;;;;;;;4.18;3.75;;;;;;;;;;5075615;28;20048;-69
2022/08/11 13:32:45;;;;;;;5.70;3.03;;;;;;;;;;5074062;28;20044;-70
2022/08/11 13:35:13;;;;;;;6.47;4.30;;;;;;;;;;5088134;28;20033;-70
2022/08/11 13:37:40;;;;;;;6.93;3.50;;;;;;;;;;5073495;28;20032;-70
2022/08/11 13:40:07;;;;;;;6.78;3.58;;;;;;;;;;5073399;28;20017;-70
2022/08/11 13:42:33;;;;;;;4.85;2.60;;;;;;;;;;5073997;28;20032;-70
2022/08/11 13:45:00;;;;;;;7.82;5.10;;;;;;;;;;5073757;28;20095;-70
2022/08/11 13:47:26;;;;;;;5.45;3.55;;;;;;;;;;5073746;28;20060;-70
2022/08/11 13:49:53;;;;;;;5.28;3.45;;;;;;;;;;5073900;28;20597;-70
2022/08/11 13:52:20;;;;;;;4.45;3.13;;;;;;;;;;5074154;28;20062;-70
2022/08/11 13:54:47;;;;;;;4.88;3.60;;;;;;;;;;5073526;28;20036;-70
2022/08/11 13:57:14;;;;;;;12.45;11.15;;;;;;;;;;5073535;28;20081;-70
2022/08/11 13:59:41;;;;;;;5.45;4.18;;;;;;;;;;5073476;28;20387;-70
2022/08/11 14:02:12;;;;;;;4.43;3.80;;;;;;;;;;5073487;28;20025;-68
2022/08/11 14:04:41;;;;;;;8.18;4.40;;;;;;;;;;5073325;28;20111;-69
2022/08/11 14:07:09;;;;;;;4.32;3.22;;;;;;;;;;5073344;28;20024;-69
2022/08/11 14:09:36;;;;;;;7.28;3.75;;;;;;;;;;5073046;28;20471;-69
2022/08/11 14:15:00;;;;;;;5.32;3.55;;;;;;;;;;5073222;28;20065;-68
2022/08/11 14:17:27;;;;;;;4.35;3.95;;;;;;;;;;5073248;28;20028;-67
2022/08/11 14:19:54;;;;;;;4.18;3.53;;;;;;;;;;5073035;28;20101;-70
2022/08/11 14:22:21;;;;;;;5.63;3.28;;;;;;;;;;5073001;28;20032;-67
2022/08/11 14:24:50;;;;;;;8.63;3.63;;;;;;;;;;5071700;28;20498;-68
2022/08/11 14:27:17;;;;;;;6.43;4.03;;;;;;;;;;5071975;28;20471;-69
2022/08/11 14:29:44;;;;;;;5.40;3.40;;;;;;;;;;5073027;28;20025;-69
2022/08/11 14:32:12;;;;;;;7.15;3.30;;;;;;;;;;5073069;28;20060;-71
2022/08/11 14:34:40;;;;;;;4.75;3.33;;;;;;;;;;5087089;28;20032;-68
2022/08/11 14:37:16;;;;;;;3.95;3.17;;;;;;;;;;5072673;28;20106;-69
2022/08/11 14:39:44;;;;;;;5.47;3.50;;;;;;;;;;5072970;28;20037;-69
2022/08/11 14:47:33;;;;;;;7.05;4.05;;;;;;;;;;5072730;28;20493;-68
2022/08/11 14:50:01;;;;;;;6.07;3.63;;;;;;;;;;5071793;28;20050;-69
2022/08/11 14:52:27;;;;;;;7.00;4.30;;;;;;;;;;5072891;28;20515;-69
2022/08/11 14:57:40;;;;;;;7.72;4.20;;;;;;;;;;5073379;28;20070;-68
2022/08/11 15:00:08;;;;;;;4.93;4.03;;;;;;;;;;5072876;28;20052;-69
2022/08/11 15:05:23;;;;;;;6.50;3.53;;;;;;;;;;5072596;28;20102;-69
2022/08/11 15:07:50;;;;;;;7.47;4.95;;;;;;;;;;5072083;28;20515;-69
2022/08/11 15:10:18;;;;;;;6.97;3.90;;;;;;;;;;5072417;28;20032;-69
2022/08/11 15:12:44;;;;;;;6.72;3.47;;;;;;;;;;5072353;28;20092;-69
2022/08/11 15:17:58;;;;;;;4.45;3.75;;;;;;;;;;5072774;28;20030;-70
2022/08/11 15:25:57;;;;;;;4.85;4.07;;;;;;;;;;5072399;28;20120;-69
2022/08/11 15:45:46;;;;;;;6.28;3.50;;;;;;;;;;5030395;28;20040;-69
2022/08/11 15:47:59;;;;;;;7.65;3.58;;;;;;;;;;5030481;28;20032;-70
2022/08/11 15:50:31;;;;;;;5.20;3.50;;;;;;;;;;5029818;28;20033;-70
2022/08/11 15:52:59;;;;;;;4.25;3.15;;;;;;;;;;5030142;28;20440;-69
2022/08/11 15:55:27;;;;;;;5.57;4.00;;;;;;;;;;5030036;28;20045;-69
2022/08/11 16:06:25;;;;;;;3.92;3.35;;;;;;;;;;5034099;28;20099;-69
2022/08/11 16:08:55;;;;;;;5.25;4.70;;;;;;;;;;5033471;28;20044;-69
2022/08/11 16:11:21;;;;;;;4.80;3.67;;;;;;;;;;5025281;28;20080;-70
2022/08/11 16:16:33;;;;;;;5.80;4.10;;;;;;;;;;5075634;28;20134;-70
2022/08/11 16:19:01;;;;;;;8.38;3.42;;;;;;;;;;5075686;28;20470;-69
2022/08/11 16:21:32;;;;;;;9.00;3.40;;;;;;;;;;5075506;28;20036;-70
2022/08/11 16:23:59;;;;;;;5.55;3.60;;;;;;;;;;5075189;28;20399;-69
2022/08/11 16:26:26;;;;;;;5.93;3.78;;;;;;;;;;5075407;28;20020;-70
2022/08/11 16:28:54;;;;;;;7.63;4.00;;;;;;;;;;5075345;28;20036;-70
2022/08/11 16:31:24;;;;;;;5.55;3.80;;;;;;;;;;5075176;28;20024;-70
2022/08/11 16:33:52;;;;;;;9.73;4.82;;;;;;;;;;5083023;28;20081;-69
2022/08/11 16:39:04;;;;;;;7.80;4.43;;;;;;;;;;5075091;28;20062;-70
2022/08/11 16:47:04;;;;;;;4.93;3.60;;;;;;;;;;5075193;28;20082;-69
2022/08/11 16:49:36;;;;;;;8.30;3.50;;;;;;;;;;5084529;28;20023;-69
2022/08/11 16:52:03;;;;;;;6.40;3.70;;;;;;;;;;5077719;28;20058;-69
2022/08/11 16:54:33;;;;;;;12.45;4.82;;;;;;;;;;5074911;28;20124;-69
2022/08/11 16:59:12;;;;;;;12.53;5.20;;;;;;;;;;5075079;28;20029;-69
2022/08/11 16:59:48;;;;;;;8.52;4.55;;;;;;;;;;5074732;28;20487;-69
2022/08/11 17:13:07;;;;;;;7.53;4.95;;;;;;;;;;5088908;28;20020;-70
2022/08/11 17:13:40;;;;;;;8.38;4.40;;;;;;;;;;5073415;28;20411;-68
2022/08/11 17:16:11;;;;;;;11.10;4.43;;;;;;;;;;5074235;28;20017;-69
2022/08/11 17:19:00;;;;;;;11.00;5.33;;;;;;;;;;5074308;28;20021;-69
2022/08/11 17:21:33;;;;;;;9.10;4.55;;;;;;;;;;5068692;28;20434;-68
2022/08/11 17:24:00;;;;;;;8.63;5.22;;;;;;;;;;5074521;28;20095;-69
2022/08/11 17:26:58;;;;;;;15.07;5.38;;;;;;;;;;5074031;28;20021;-69
2022/08/11 17:29:27;;;;;;;8.10;4.72;;;;;;;;;;5074022;28;20019;-69
2022/08/11 17:37:24;;;;;;;8.73;5.57;;;;;;;;;;5073876;28;20046;-68
2022/08/11 17:39:51;;;;;;;10.38;5.55;;;;;;;;;;5073736;28;20028;-69
2022/08/11 17:50:33;;;;;;;7.65;5.80;;;;;;;;;;5073899;28;20059;-67
2022/08/11 18:01:16;;;;;;;11.20;5.20;;;;;;;;;;5073754;28;20043;-69
2022/08/11 18:03:43;;;;;;;7.60;5.22;;;;;;;;;;5087610;28;20077;-69
2022/08/11 18:06:11;;;;;;;10.10;5.28;;;;;;;;;;5073695;28;20028;-68
